Time;durP1;ratioP1;P1;durP2;ratioP2;P2;SDS_P1;SDS_P2;PMS_P1;PMS_P2;Temp;Humidity;BMP_temperature;BMP_pressure;BME280_temperature;BME280_humidity;BME280_pressure;Samples;Min_cycle;Max_cycle;Signal;HPM_P1;HPM_P2
2022/03/26 00:02:13;;;;;;;61.95;36.13;;;10.20;99.90;;;;;;5050528;28;20082;-57
2022/03/26 00:04:38;;;;;;;64.60;36.47;;;10.20;99.90;;;;;;5052481;28;20048;-58
2022/03/26 00:07:04;;;;;;;66.78;35.83;;;10.10;99.90;;;;;;5050467;28;20056;-58
2022/03/26 00:09:30;;;;;;;71.90;37.00;;;10.20;99.90;;;;;;5050579;28;20048;-56
2022/03/26 00:11:56;;;;;;;66.43;36.40;;;10.20;99.90;;;;;;5051553;28;20420;-58
2022/03/26 00:14:22;;;;;;;66.78;37.08;;;10.20;99.90;;;;;;5051716;28;20145;-58
2022/03/26 00:16:47;;;;;;;63.63;35.35;;;10.20;99.90;;;;;;5051093;28;20025;-58
2022/03/26 00:19:14;;;;;;;66.65;35.58;;;10.10;99.90;;;;;;5051208;28;20033;-58
2022/03/26 00:21:40;;;;;;;63.05;35.97;;;10.10;99.90;;;;;;5051082;28;20031;-58
2022/03/26 00:24:06;;;;;;;62.88;35.67;;;10.10;99.90;;;;;;5051361;28;20021;-58
2022/03/26 00:26:32;;;;;;;64.32;35.50;;;10.00;99.90;;;;;;5051318;28;20031;-58
2022/03/26 00:28:58;;;;;;;65.45;35.03;;;10.00;99.90;;;;;;5066119;28;20024;-58
2022/03/26 00:31:23;;;;;;;62.30;34.03;;;10.00;99.90;;;;;;5051388;28;20022;-58
2022/03/26 00:33:49;;;;;;;61.22;34.45;;;10.00;99.90;;;;;;5051488;28;20052;-58
2022/03/26 00:36:15;;;;;;;63.90;34.22;;;10.10;99.90;;;;;;5051232;28;20473;-58
2022/03/26 00:38:40;;;;;;;71.80;34.50;;;10.10;99.90;;;;;;5050717;28;20090;-58
2022/03/26 00:41:06;;;;;;;59.85;34.95;;;10.10;99.90;;;;;;5050103;28;20126;-58
2022/03/26 00:43:32;;;;;;;65.93;34.13;;;10.10;99.90;;;;;;5050246;28;20435;-58
2022/03/26 00:45:57;;;;;;;61.13;32.35;;;10.10;99.90;;;;;;5051361;28;20037;-58
2022/03/26 00:48:23;;;;;;;60.60;32.97;;;10.10;99.90;;;;;;5050718;28;20028;-58
2022/03/26 00:50:49;;;;;;;59.88;33.17;;;10.10;99.90;;;;;;5050787;28;20021;-58
2022/03/26 00:53:14;;;;;;;58.53;33.22;;;10.10;99.90;;;;;;5050756;28;20024;-58
2022/03/26 00:55:40;;;;;;;56.72;31.60;;;10.10;99.90;;;;;;5050105;28;20078;-58
2022/03/26 00:58:05;;;;;;;67.60;31.67;;;10.10;99.90;;;;;;5050780;28;20505;-58
2022/03/26 01:00:31;;;;;;;62.80;32.95;;;10.00;99.90;;;;;;5049851;28;20036;-58
2022/03/26 01:02:58;;;;;;;55.72;31.15;;;10.00;99.90;;;;;;5049708;28;20468;-58
2022/03/26 01:05:23;;;;;;;58.58;32.25;;;10.00;99.90;;;;;;5050175;28;20559;-58
2022/03/26 01:07:50;;;;;;;52.83;31.48;;;10.00;99.90;;;;;;5050493;28;20025;-56
2022/03/26 01:10:15;;;;;;;55.47;30.63;;;9.90;99.90;;;;;;5051301;28;20029;-56
2022/03/26 01:12:41;;;;;;;59.13;31.90;;;9.90;99.90;;;;;;5054168;28;20062;-58
2022/03/26 01:15:07;;;;;;;53.65;31.60;;;9.80;99.90;;;;;;5053980;28;20035;-58
2022/03/26 01:17:33;;;;;;;56.30;31.98;;;9.90;99.90;;;;;;5054994;28;20021;-59
2022/03/26 01:20:01;;;;;;;59.00;30.75;;;9.80;99.90;;;;;;5055177;28;20021;-58
2022/03/26 01:22:27;;;;;;;54.97;31.17;;;9.80;99.90;;;;;;5053799;28;20370;-58
2022/03/26 01:24:52;;;;;;;55.80;30.88;;;9.80;99.90;;;;;;5054040;28;20031;-58
2022/03/26 01:27:18;;;;;;;56.90;31.10;;;9.80;99.90;;;;;;5054230;28;20108;-58
2022/03/26 01:29:44;;;;;;;51.95;29.40;;;9.80;99.90;;;;;;5053845;28;20025;-58
2022/03/26 01:32:10;;;;;;;52.28;29.05;;;9.80;99.90;;;;;;5054266;28;20025;-58
2022/03/26 01:34:37;;;;;;;49.45;29.35;;;9.80;99.90;;;;;;5054162;28;20018;-56
2022/03/26 01:37:03;;;;;;;54.90;30.50;;;9.80;99.90;;;;;;5053613;28;20422;-58
2022/03/26 01:39:30;;;;;;;54.10;31.63;;;9.80;99.90;;;;;;5054325;28;20051;-58
2022/03/26 01:42:03;;;;;;;55.40;29.73;;;9.80;99.90;;;;;;5053631;28;20525;-58
2022/03/26 01:44:29;;;;;;;56.22;30.52;;;9.80;99.90;;;;;;5053910;28;20402;-58
2022/03/26 01:46:55;;;;;;;54.83;30.95;;;9.70;99.90;;;;;;5053370;28;20029;-60
2022/03/26 01:49:21;;;;;;;51.40;28.83;;;9.70;99.90;;;;;;5053280;28;20033;-58
2022/03/26 01:51:48;;;;;;;54.60;30.42;;;9.70;99.90;;;;;;5052896;28;20029;-58
2022/03/26 01:54:15;;;;;;;51.60;30.60;;;9.70;99.90;;;;;;5053566;28;20033;-58
2022/03/26 01:56:42;;;;;;;62.15;30.02;;;9.70;99.90;;;;;;5053486;28;20402;-57
2022/03/26 01:59:08;;;;;;;50.65;29.55;;;9.60;99.90;;;;;;5053313;28;20100;-58
2022/03/26 02:01:34;;;;;;;59.15;29.45;;;9.60;99.90;;;;;;5052774;28;20029;-58
2022/03/26 02:04:01;;;;;;;53.88;29.75;;;9.60;99.90;;;;;;5053446;28;20445;-58
2022/03/26 02:06:31;;;;;;;52.75;29.20;;;9.60;99.90;;;;;;5053293;28;20033;-58
2022/03/26 02:09:01;;;;;;;55.83;29.80;;;9.60;99.90;;;;;;5053371;28;20064;-57
2022/03/26 02:11:35;;;;;;;50.83;29.50;;;9.60;99.90;;;;;;5053755;28;20524;-58
2022/03/26 02:14:02;;;;;;;49.75;29.58;;;9.50;99.90;;;;;;5067921;28;20021;-58
2022/03/26 02:16:33;;;;;;;47.45;28.98;;;9.50;99.90;;;;;;5053185;28;20028;-58
2022/03/26 02:18:59;;;;;;;55.10;29.88;;;9.50;99.90;;;;;;5053208;28;20033;-58
2022/03/26 02:21:25;;;;;;;55.13;30.17;;;9.40;99.90;;;;;;5052329;28;20545;-58
2022/03/26 02:23:52;;;;;;;52.15;30.05;;;9.40;99.90;;;;;;5052202;28;20100;-58
2022/03/26 02:26:25;;;;;;;55.38;29.98;;;9.30;99.90;;;;;;5052197;28;20082;-59
2022/03/26 02:28:53;;;;;;;52.03;29.08;;;9.40;99.90;;;;;;5052295;28;20033;-58
2022/03/26 02:31:19;;;;;;;56.45;29.48;;;9.40;99.90;;;;;;5052533;28;20049;-58
2022/03/26 02:33:44;;;;;;;55.20;28.88;;;9.40;99.90;;;;;;5052709;28;20104;-58
2022/03/26 02:36:11;;;;;;;54.22;29.52;;;9.40;99.90;;;;;;5052956;28;20545;-58
2022/03/26 02:38:37;;;;;;;51.83;28.67;;;9.40;99.90;;;;;;5052405;28;20523;-58
2022/03/26 02:41:04;;;;;;;52.83;29.45;;;9.40;99.90;;;;;;5052089;28;20052;-58
2022/03/26 02:43:30;;;;;;;55.90;29.23;;;9.40;99.90;;;;;;5052146;28;20025;-57
2022/03/26 02:45:56;;;;;;;53.92;29.90;;;9.40;99.90;;;;;;5052252;28;20020;-57
2022/03/26 02:48:22;;;;;;;63.10;30.88;;;9.40;99.90;;;;;;5052468;28;20029;-58
2022/03/26 02:50:48;;;;;;;55.65;29.35;;;9.30;99.90;;;;;;5052023;28;20075;-57
2022/03/26 02:53:14;;;;;;;58.08;30.10;;;9.30;99.90;;;;;;5051736;28;20095;-57
2022/03/26 02:55:40;;;;;;;55.30;29.65;;;9.20;99.90;;;;;;5051707;28;20025;-57
2022/03/26 02:58:07;;;;;;;57.88;29.25;;;9.20;99.90;;;;;;5052588;28;20525;-57
2022/03/26 03:00:34;;;;;;;55.17;30.30;;;9.20;99.90;;;;;;5051851;28;20032;-57
2022/03/26 03:03:00;;;;;;;57.22;30.77;;;9.10;99.90;;;;;;5051349;28;20027;-57
2022/03/26 03:05:26;;;;;;;52.97;29.95;;;9.10;99.90;;;;;;5051215;28;20053;-57
2022/03/26 03:07:53;;;;;;;56.35;29.98;;;9.10;99.90;;;;;;5051322;28;20028;-57
2022/03/26 03:10:20;;;;;;;57.05;30.13;;;9.00;99.90;;;;;;5051644;28;20033;-57
2022/03/26 03:12:47;;;;;;;55.42;29.02;;;8.90;99.90;;;;;;5050111;28;20079;-57
2022/03/26 03:15:13;;;;;;;54.65;29.13;;;8.90;99.90;;;;;;5051576;28;20100;-57
2022/03/26 03:17:40;;;;;;;59.58;30.23;;;8.90;99.90;;;;;;5051647;28;20032;-57
2022/03/26 03:20:07;;;;;;;51.20;29.13;;;8.80;99.90;;;;;;5051534;28;20485;-57
2022/03/26 03:22:33;;;;;;;60.97;29.90;;;8.80;99.90;;;;;;5051319;28;20024;-57
2022/03/26 03:24:59;;;;;;;56.50;28.98;;;8.80;99.90;;;;;;5051873;28;20039;-56
2022/03/26 03:27:25;;;;;;;56.55;30.02;;;8.70;99.90;;;;;;5051415;28;20021;-56
2022/03/26 03:29:51;;;;;;;54.30;30.40;;;8.70;99.90;;;;;;5051841;28;20033;-57
2022/03/26 03:32:17;;;;;;;61.03;30.42;;;8.70;99.90;;;;;;5051243;28;20078;-57
2022/03/26 03:34:43;;;;;;;57.78;31.13;;;8.60;99.90;;;;;;5051896;28;20017;-57
2022/03/26 03:37:08;;;;;;;56.15;29.95;;;8.70;99.90;;;;;;5050728;28;20056;-57
2022/03/26 03:39:34;;;;;;;54.83;30.13;;;8.60;99.90;;;;;;5051672;28;20530;-57
2022/03/26 03:42:00;;;;;;;53.85;30.15;;;8.60;99.90;;;;;;5051751;28;20033;-58
2022/03/26 03:44:25;;;;;;;56.88;30.77;;;8.60;99.90;;;;;;5051350;28;20056;-57
2022/03/26 03:46:52;;;;;;;54.75;30.50;;;8.60;99.90;;;;;;5051742;28;20624;-57
2022/03/26 03:49:18;;;;;;;55.53;31.10;;;8.60;99.90;;;;;;5051047;28;20139;-56
2022/03/26 03:51:44;;;;;;;56.28;29.70;;;8.50;99.90;;;;;;5050651;28;20412;-56
2022/03/26 03:54:10;;;;;;;51.95;30.30;;;8.50;99.90;;;;;;5066264;28;20032;-56
2022/03/26 03:56:36;;;;;;;57.17;30.00;;;8.50;99.90;;;;;;5050733;28;20092;-57
2022/03/26 03:59:02;;;;;;;54.20;29.85;;;8.50;99.90;;;;;;5050676;28;20033;-57
2022/03/26 04:01:27;;;;;;;53.10;29.02;;;8.50;99.90;;;;;;5051787;28;20385;-57
2022/03/26 04:03:53;;;;;;;50.75;29.52;;;8.50;99.90;;;;;;5051508;28;20557;-57
2022/03/26 04:06:19;;;;;;;55.17;30.35;;;8.40;99.90;;;;;;5050635;28;20059;-57
2022/03/26 04:08:44;;;;;;;58.72;30.75;;;8.50;99.90;;;;;;5051321;28;20060;-56
2022/03/26 04:11:10;;;;;;;54.35;30.98;;;8.40;99.90;;;;;;5051166;28;20028;-56
2022/03/26 04:13:36;;;;;;;58.42;31.73;;;8.40;99.90;;;;;;5050531;28;20489;-56
2022/03/26 04:16:02;;;;;;;54.72;30.60;;;8.40;99.90;;;;;;5050405;28;20021;-56
2022/03/26 04:18:28;;;;;;;57.53;30.55;;;8.40;99.90;;;;;;5065621;28;20033;-56
2022/03/26 04:20:54;;;;;;;58.10;30.52;;;8.40;99.90;;;;;;5050533;28;20032;-56
2022/03/26 04:23:20;;;;;;;57.95;30.92;;;8.40;99.90;;;;;;5051553;28;20040;-56
2022/03/26 04:25:46;;;;;;;57.38;30.27;;;8.30;99.90;;;;;;5049930;28;20032;-56
2022/03/26 04:28:13;;;;;;;62.35;31.35;;;8.30;99.90;;;;;;5051088;28;20040;-56
2022/03/26 04:30:38;;;;;;;60.92;31.38;;;8.30;99.90;;;;;;5051078;28;20070;-56
2022/03/26 04:33:04;;;;;;;52.45;30.70;;;8.30;99.90;;;;;;5050607;28;20029;-57
2022/03/26 04:35:30;;;;;;;59.78;30.67;;;8.30;99.90;;;;;;5050103;28;20052;-57
2022/03/26 04:37:56;;;;;;;56.35;31.63;;;8.20;99.90;;;;;;5050307;28;20415;-57
2022/03/26 04:40:23;;;;;;;54.80;30.10;;;8.20;99.90;;;;;;5050723;28;20310;-57
2022/03/26 04:42:49;;;;;;;56.63;31.50;;;8.20;99.90;;;;;;5051218;28;20024;-57
2022/03/26 04:45:15;;;;;;;54.00;30.67;;;8.20;99.90;;;;;;5053111;28;20043;-58
2022/03/26 04:47:41;;;;;;;56.67;31.45;;;8.20;99.90;;;;;;5054768;28;20533;-57
2022/03/26 04:50:08;;;;;;;59.38;31.33;;;8.20;99.90;;;;;;5054405;28;20026;-57
2022/03/26 04:52:34;;;;;;;58.55;31.67;;;8.20;99.90;;;;;;5054115;28;20025;-57
2022/03/26 04:55:00;;;;;;;59.00;30.65;;;8.20;99.90;;;;;;5054903;28;20074;-57
2022/03/26 04:57:25;;;;;;;55.85;31.83;;;8.20;99.90;;;;;;5053919;28;20063;-57
2022/03/26 04:59:52;;;;;;;56.63;30.48;;;8.20;99.90;;;;;;5054250;28;20053;-57
2022/03/26 05:02:17;;;;;;;56.42;28.88;;;8.20;99.90;;;;;;5070129;28;20489;-57
2022/03/26 05:04:43;;;;;;;60.53;31.50;;;8.10;99.90;;;;;;5054884;28;20024;-57
2022/03/26 05:09:53;;;;;;;57.40;30.50;;;8.10;99.90;;;;;;5054423;28;20413;-57
2022/03/26 05:12:19;;;;;;;51.10;30.60;;;8.10;99.90;;;;;;5054848;28;20025;-57
2022/03/26 05:14:45;;;;;;;55.30;31.00;;;8.10;99.90;;;;;;5054159;28;20489;-56
2022/03/26 05:17:12;;;;;;;56.53;31.42;;;8.10;99.90;;;;;;5054111;28;20024;-57
2022/03/26 05:19:37;;;;;;;59.38;32.13;;;8.10;99.90;;;;;;5069811;28;20029;-57
2022/03/26 05:22:04;;;;;;;56.10;30.67;;;8.10;99.90;;;;;;5053985;28;20032;-57
2022/03/26 05:24:30;;;;;;;61.65;31.30;;;8.00;99.90;;;;;;5053808;28;20025;-57
2022/03/26 05:26:56;;;;;;;58.53;31.13;;;8.00;99.90;;;;;;5054214;28;20036;-57
2022/03/26 05:29:21;;;;;;;55.47;30.88;;;8.00;99.90;;;;;;5052245;28;20431;-57
2022/03/26 05:31:47;;;;;;;55.53;30.05;;;7.90;99.90;;;;;;5053290;28;20056;-57
2022/03/26 05:34:13;;;;;;;57.58;30.77;;;8.00;99.90;;;;;;5053718;28;20033;-57
2022/03/26 05:36:39;;;;;;;60.92;32.30;;;7.90;99.90;;;;;;5053378;28;20543;-57
2022/03/26 05:39:05;;;;;;;57.20;30.00;;;7.90;99.90;;;;;;5053971;28;20127;-57
2022/03/26 05:41:32;;;;;;;58.67;31.83;;;7.90;99.90;;;;;;5053527;28;20410;-57
2022/03/26 05:43:59;;;;;;;64.47;32.42;;;7.90;99.90;;;;;;5053522;28;20071;-57
2022/03/26 05:46:25;;;;;;;56.35;32.00;;;7.90;99.90;;;;;;5053909;28;20059;-57
2022/03/26 05:48:50;;;;;;;59.13;31.08;;;8.00;99.90;;;;;;5069038;28;20033;-57
2022/03/26 05:51:16;;;;;;;58.92;31.33;;;7.90;99.90;;;;;;5053269;28;20025;-57
2022/03/26 05:53:42;;;;;;;56.42;33.28;;;7.90;99.90;;;;;;5052286;28;20059;-57
2022/03/26 05:56:07;;;;;;;58.00;31.13;;;7.90;99.90;;;;;;5052711;28;20043;-57
2022/03/26 05:58:34;;;;;;;61.72;31.23;;;7.90;99.90;;;;;;5053738;28;20032;-57
2022/03/26 06:01:00;;;;;;;57.97;32.72;;;7.90;99.90;;;;;;5053188;28;20056;-57
2022/03/26 06:03:26;;;;;;;57.92;31.92;;;8.00;99.90;;;;;;5053621;28;20063;-57
2022/03/26 06:05:51;;;;;;;64.10;31.52;;;8.00;99.90;;;;;;5053094;28;20405;-57
2022/03/26 06:08:17;;;;;;;55.85;31.88;;;8.00;99.90;;;;;;5053024;28;20090;-57
2022/03/26 06:10:43;;;;;;;63.88;31.77;;;8.10;99.90;;;;;;5053190;28;20482;-57
2022/03/26 06:13:09;;;;;;;59.60;30.90;;;8.10;99.90;;;;;;5053060;28;20087;-57
2022/03/26 06:15:34;;;;;;;61.85;32.15;;;8.10;99.90;;;;;;5053484;28;20044;-57
2022/03/26 06:18:04;;;;;;;55.63;31.58;;;8.10;99.90;;;;;;5052590;28;20056;-57
2022/03/26 06:20:30;;;;;;;58.45;31.67;;;8.20;99.90;;;;;;5052973;28;20397;-57
2022/03/26 06:22:56;;;;;;;59.22;31.90;;;8.30;99.90;;;;;;5052954;28;20021;-57
2022/03/26 06:25:22;;;;;;;57.38;31.90;;;8.30;99.90;;;;;;5053113;28;20037;-57
2022/03/26 06:27:48;;;;;;;61.15;32.10;;;8.40;99.90;;;;;;5069018;28;20033;-57
2022/03/26 06:30:15;;;;;;;60.17;30.45;;;8.30;99.90;;;;;;5052658;28;20078;-57
2022/03/26 06:32:41;;;;;;;62.42;32.90;;;8.40;99.90;;;;;;5052527;28;20021;-57
2022/03/26 06:35:07;;;;;;;67.10;32.17;;;8.50;99.90;;;;;;5052721;28;20029;-57
2022/03/26 06:37:33;;;;;;;60.22;32.17;;;8.50;99.90;;;;;;5052522;28;20053;-57
2022/03/26 06:39:58;;;;;;;62.80;32.45;;;8.60;99.90;;;;;;5053019;28;20043;-57
2022/03/26 06:42:25;;;;;;;60.78;32.65;;;8.60;99.90;;;;;;5052640;28;20071;-57
2022/03/26 06:44:52;;;;;;;59.13;31.20;;;8.70;99.90;;;;;;5052506;28;20066;-57
2022/03/26 06:47:17;;;;;;;60.78;31.88;;;8.80;99.90;;;;;;5053499;28;20379;-57
2022/03/26 06:49:43;;;;;;;57.30;31.98;;;8.90;99.90;;;;;;5053481;28;20021;-57
2022/03/26 06:52:09;;;;;;;61.08;32.53;;;9.00;99.90;;;;;;5054533;28;20052;-57
2022/03/26 06:54:35;;;;;;;56.67;32.95;;;9.00;99.90;;;;;;5053195;28;20021;-57
2022/03/26 06:57:00;;;;;;;65.47;31.48;;;9.10;99.90;;;;;;5052270;28;20108;-57
2022/03/26 06:59:26;;;;;;;61.40;31.85;;;9.10;99.90;;;;;;5050830;28;20071;-57
2022/03/26 07:01:52;;;;;;;59.70;33.28;;;9.20;99.90;;;;;;5052211;28;20025;-57
2022/03/26 07:04:17;;;;;;;61.05;32.85;;;9.30;99.90;;;;;;5051665;28;20590;-57
2022/03/26 07:06:43;;;;;;;65.72;33.60;;;9.40;99.90;;;;;;5050511;28;20104;-57
2022/03/26 07:09:09;;;;;;;59.00;32.67;;;9.50;99.90;;;;;;5052026;28;20059;-57
2022/03/26 07:11:34;;;;;;;57.53;32.85;;;9.60;99.90;;;;;;5051637;28;20397;-57
2022/03/26 07:14:00;;;;;;;56.25;32.05;;;9.70;99.90;;;;;;5051451;28;20025;-57
2022/03/26 07:16:26;;;;;;;57.00;31.33;;;9.90;99.90;;;;;;5051580;28;20504;-57
2022/03/26 07:18:51;;;;;;;55.75;31.85;;;10.00;99.90;;;;;;5051443;28;20037;-57
2022/03/26 07:21:17;;;;;;;53.28;31.42;;;10.10;99.90;;;;;;5051999;28;20029;-57
2022/03/26 07:23:43;;;;;;;60.25;32.35;;;10.20;99.90;;;;;;5051244;28;20483;-57
2022/03/26 07:26:08;;;;;;;59.38;31.85;;;10.20;99.90;;;;;;5051250;28;20029;-57
2022/03/26 07:28:34;;;;;;;57.00;32.40;;;10.20;99.90;;;;;;5051533;28;20033;-57
2022/03/26 07:30:59;;;;;;;59.15;31.95;;;10.30;99.90;;;;;;5051085;28;20040;-57
2022/03/26 07:33:25;;;;;;;60.15;31.90;;;10.30;99.90;;;;;;5051122;28;20527;-57
2022/03/26 07:35:51;;;;;;;57.42;32.30;;;10.50;99.90;;;;;;5067958;28;20036;-57
2022/03/26 07:38:16;;;;;;;65.55;34.05;;;10.60;99.90;;;;;;5052168;28;20080;-57
2022/03/26 07:40:42;;;;;;;63.03;32.85;;;10.70;99.90;;;;;;5051288;28;20025;-57
2022/03/26 07:43:08;;;;;;;57.80;33.30;;;10.70;99.90;;;;;;5052104;28;20040;-57
2022/03/26 07:45:34;;;;;;;58.03;33.10;;;10.90;99.90;;;;;;5050800;28;20027;-58
2022/03/26 07:48:00;;;;;;;57.67;32.28;;;11.00;99.90;;;;;;5051318;28;20029;-58
2022/03/26 07:50:26;;;;;;;59.70;32.72;;;11.10;99.90;;;;;;5050344;28;20147;-57
2022/03/26 07:52:51;;;;;;;51.05;32.00;;;11.20;99.90;;;;;;5050853;28;20513;-57
2022/03/26 07:55:17;;;;;;;53.75;30.77;;;11.50;99.90;;;;;;5051540;28;20017;-58
2022/03/26 07:57:43;;;;;;;57.80;31.17;;;12.20;99.90;;;;;;5050638;28;20099;-57
2022/03/26 08:00:09;;;;;;;51.63;31.13;;;13.30;99.90;;;;;;5050391;28;20021;-58
2022/03/26 08:02:34;;;;;;;49.30;30.77;;;14.50;99.40;;;;;;5050012;28;20501;-59
2022/03/26 08:05:00;;;;;;;50.33;30.88;;;15.40;96.80;;;;;;5049622;28;20063;-58
2022/03/26 08:07:27;;;;;;;51.50;31.48;;;16.00;95.30;;;;;;5051352;28;20017;-59
2022/03/26 08:09:53;;;;;;;53.35;33.40;;;16.70;93.80;;;;;;5050900;28;20506;-61
2022/03/26 08:12:18;;;;;;;48.00;31.70;;;17.20;91.70;;;;;;5050857;28;20064;-59
2022/03/26 08:14:44;;;;;;;51.63;31.63;;;17.50;91.30;;;;;;5050204;28;20105;-59
2022/03/26 08:17:10;;;;;;;48.00;30.67;;;17.80;90.00;;;;;;5050332;28;20539;-59
2022/03/26 08:19:36;;;;;;;48.70;31.58;;;17.80;89.00;;;;;;5050912;28;20095;-59
2022/03/26 08:22:03;;;;;;;51.35;31.45;;;18.10;87.70;;;;;;5050466;28;20029;-59
2022/03/26 08:24:29;;;;;;;46.72;31.20;;;18.60;86.30;;;;;;5065461;28;20075;-59
2022/03/26 08:26:54;;;;;;;52.20;32.45;;;18.70;84.90;;;;;;5050739;28;20064;-60
2022/03/26 08:29:20;;;;;;;44.53;31.92;;;18.80;84.10;;;;;;5051115;28;20036;-59
2022/03/26 08:31:46;;;;;;;48.30;30.95;;;18.40;84.90;;;;;;5050236;28;20021;-60
2022/03/26 08:34:12;;;;;;;48.30;31.27;;;18.60;84.10;;;;;;5050132;28;20028;-59
2022/03/26 08:36:38;;;;;;;48.88;30.73;;;18.90;83.40;;;;;;5050498;28;20143;-59
2022/03/26 08:39:04;;;;;;;44.72;31.75;;;19.10;82.20;;;;;;5050341;28;20045;-59
2022/03/26 08:41:31;;;;;;;52.22;32.80;;;19.40;80.90;;;;;;5051471;28;20045;-59
2022/03/26 08:43:57;;;;;;;47.95;32.33;;;19.60;79.20;;;;;;5051484;28;20079;-59
2022/03/26 08:46:23;;;;;;;52.88;32.28;;;19.60;79.60;;;;;;5051128;28;20411;-59
2022/03/26 08:48:50;;;;;;;53.38;33.28;;;20.00;78.30;;;;;;5051869;28;20369;-59
2022/03/26 08:51:17;;;;;;;51.63;32.90;;;20.50;76.30;;;;;;5051134;28;20402;-59
2022/03/26 08:53:42;;;;;;;48.55;32.97;;;20.60;76.40;;;;;;5050782;28;20029;-59
2022/03/26 08:56:08;;;;;;;48.90;33.13;;;20.20;77.60;;;;;;5050534;28;20039;-59
2022/03/26 08:58:36;;;;;;;46.33;32.47;;;20.50;75.90;;;;;;5050007;28;20056;-59
2022/03/26 09:01:02;;;;;;;49.03;32.13;;;20.70;75.50;;;;;;5050358;28;20581;-60
2022/03/26 09:03:28;;;;;;;46.53;32.67;;;20.70;74.90;;;;;;5049797;28;20067;-60
2022/03/26 09:05:55;;;;;;;49.67;32.50;;;20.90;73.50;;;;;;5050289;28;20053;-60
2022/03/26 09:08:21;;;;;;;51.20;33.22;;;21.20;72.30;;;;;;5050376;28;20029;-60
2022/03/26 09:10:47;;;;;;;48.35;33.72;;;20.90;73.40;;;;;;5050429;28;20095;-60
2022/03/26 09:13:12;;;;;;;49.83;34.10;;;21.10;71.20;;;;;;5049785;28;20025;-59
2022/03/26 09:15:38;;;;;;;47.47;32.38;;;20.80;71.30;;;;;;5050174;28;20045;-59
2022/03/26 09:18:04;;;;;;;46.72;32.78;;;20.00;73.30;;;;;;5050447;28;20043;-60
2022/03/26 09:20:30;;;;;;;51.15;32.78;;;20.30;73.70;;;;;;5048514;28;20040;-60
2022/03/26 09:22:55;;;;;;;48.60;31.13;;;20.60;73.80;;;;;;5049528;28;20033;-60
2022/03/26 09:25:21;;;;;;;55.13;31.38;;;20.80;72.20;;;;;;5049843;28;20052;-60
2022/03/26 09:27:48;;;;;;;50.53;30.80;;;20.80;72.20;;;;;;5049964;28;20444;-60
2022/03/26 09:30:17;;;;;;;51.35;32.97;;;21.30;71.10;;;;;;5050489;28;20017;-60
2022/03/26 09:32:44;;;;;;;48.35;32.10;;;21.80;68.90;;;;;;5053662;28;20021;-61
2022/03/26 09:35:11;;;;;;;47.15;31.75;;;21.40;70.30;;;;;;5053856;28;20029;-60
2022/03/26 09:37:38;;;;;;;48.70;32.33;;;21.50;71.10;;;;;;5053227;28;20077;-60
2022/03/26 09:40:04;;;;;;;48.22;32.53;;;21.70;69.20;;;;;;5052913;28;20107;-60
2022/03/26 09:42:34;;;;;;;48.38;32.58;;;21.20;70.10;;;;;;5053785;28;20025;-60
2022/03/26 09:44:59;;;;;;;52.92;32.90;;;21.50;69.50;;;;;;5053236;28;20047;-60
2022/03/26 09:47:25;;;;;;;53.45;32.85;;;21.70;69.10;;;;;;5068243;28;20469;-60
2022/03/26 09:49:51;;;;;;;56.50;33.17;;;21.40;69.20;;;;;;5068069;28;20402;-60
2022/03/26 09:52:17;;;;;;;52.63;32.38;;;21.30;69.30;;;;;;5052641;28;20025;-60
2022/03/26 09:54:43;;;;;;;51.30;32.85;;;21.50;68.80;;;;;;5052820;28;20413;-60
2022/03/26 09:57:09;;;;;;;47.03;31.98;;;21.50;68.00;;;;;;5053197;28;20096;-60
2022/03/26 09:59:35;;;;;;;46.53;30.50;;;21.80;69.10;;;;;;5052388;28;20036;-60
2022/03/26 10:02:02;;;;;;;56.15;34.65;;;21.90;68.00;;;;;;5052825;28;20032;-60
2022/03/26 10:04:37;;;;;;;44.70;31.70;;;21.60;69.80;;;;;;5052365;28;20029;-60
2022/03/26 10:07:04;;;;;;;48.03;32.67;;;22.30;65.70;;;;;;5051149;28;20078;-60
2022/03/26 10:09:42;;;;;;;51.30;31.77;;;22.40;66.80;;;;;;5052875;28;20486;-60
2022/03/26 10:12:10;;;;;;;49.97;31.77;;;22.20;67.50;;;;;;5052428;28;20051;-61
2022/03/26 10:15:12;;;;;;;46.17;30.83;;;22.70;66.20;;;;;;5051268;28;20545;-60
2022/03/26 10:17:37;;;;;;;41.90;30.20;;;22.90;64.70;;;;;;5029516;28;20034;-60
2022/03/26 10:20:10;;;;;;;48.03;30.23;;;22.70;63.70;;;;;;5047953;28;20545;-60
2022/03/26 10:22:37;;;;;;;47.25;30.63;;;22.50;65.30;;;;;;5067401;28;20397;-60
2022/03/26 10:25:08;;;;;;;46.75;31.83;;;22.40;63.40;;;;;;5051863;28;20029;-60
2022/03/26 10:27:42;;;;;;;52.10;31.40;;;22.00;64.30;;;;;;5052124;28;20037;-60
2022/03/26 10:30:16;;;;;;;49.67;29.98;;;21.60;65.80;;;;;;5052099;28;20106;-60
2022/03/26 10:32:49;;;;;;;47.15;30.38;;;21.90;66.20;;;;;;5052198;28;20132;-60
2022/03/26 10:35:17;;;;;;;45.35;29.48;;;22.30;64.70;;;;;;5051840;28;20017;-60
2022/03/26 10:37:43;;;;;;;44.30;29.73;;;22.70;64.00;;;;;;5051842;28;20056;-60
2022/03/26 10:40:22;;;;;;;44.78;29.50;;;23.00;63.10;;;;;;5052012;28;20025;-60
2022/03/26 10:42:59;;;;;;;53.15;31.15;;;23.40;61.30;;;;;;5067199;28;20505;-60
2022/03/26 10:45:25;;;;;;;47.53;30.52;;;23.10;60.70;;;;;;5051948;28;20394;-60
2022/03/26 10:47:56;;;;;;;45.63;29.92;;;22.70;62.30;;;;;;5067357;28;20113;-60
2022/03/26 10:50:23;;;;;;;51.03;30.90;;;22.70;63.40;;;;;;5051804;28;20033;-61
2022/03/26 10:52:53;;;;;;;51.70;31.58;;;23.20;60.80;;;;;;5051322;28;20014;-60
2022/03/26 10:55:19;;;;;;;47.30;29.00;;;22.70;60.20;;;;;;5051948;28;20371;-60
2022/03/26 10:57:47;;;;;;;49.67;29.30;;;22.40;60.40;;;;;;5051420;28;20024;-60
2022/03/26 11:00:17;;;;;;;44.60;29.40;;;22.60;58.80;;;;;;5051693;28;20259;-60
2022/03/26 11:02:44;;;;;;;49.25;29.80;;;22.50;60.50;;;;;;5071943;28;20031;-60
2022/03/26 11:05:14;;;;;;;47.17;31.13;;;22.70;59.50;;;;;;5054630;28;20087;-60
2022/03/26 11:07:41;;;;;;;50.00;31.05;;;22.80;60.20;;;;;;5068723;28;20017;-60
2022/03/26 11:10:15;;;;;;;49.42;31.45;;;22.90;59.60;;;;;;5056675;28;20075;-60
2022/03/26 11:12:45;;;;;;;42.92;28.63;;;23.20;59.80;;;;;;5051595;28;20018;-60
2022/03/26 11:15:26;;;;;;;50.40;31.00;;;22.90;59.00;;;;;;5071620;28;20082;-60
2022/03/26 11:18:13;;;;;;;46.42;30.58;;;22.50;59.30;;;;;;5051996;28;20116;-59
2022/03/26 11:20:48;;;;;;;43.15;27.15;;;22.20;60.10;;;;;;5051005;28;20021;-60
2022/03/26 11:23:42;;;;;;;43.60;28.10;;;22.80;59.40;;;;;;5051218;28;20017;-59
2022/03/26 11:26:21;;;;;;;48.10;29.83;;;22.80;58.50;;;;;;5050742;28;20025;-59
2022/03/26 11:29:05;;;;;;;45.17;29.02;;;22.80;59.40;;;;;;5051075;28;20025;-60
2022/03/26 11:31:39;;;;;;;43.50;28.33;;;22.90;59.80;;;;;;5051546;28;20385;-60
2022/03/26 11:34:08;;;;;;;43.13;28.48;;;23.80;58.80;;;;;;5051925;28;20032;-60
2022/03/26 11:36:34;;;;;;;43.70;27.50;;;24.00;57.10;;;;;;5050699;28;20469;-59
2022/03/26 11:39:14;;;;;;;44.13;25.92;;;23.30;57.00;;;;;;5051322;28;20048;-60
2022/03/26 11:41:41;;;;;;;47.88;29.15;;;23.60;56.50;;;;;;5050852;28;20096;-60
2022/03/26 11:44:08;;;;;;;44.95;27.70;;;24.00;57.00;;;;;;5049431;28;20048;-60
2022/03/26 11:52:26;;;;;;;42.22;26.52;;;24.00;56.00;;;;;;5050633;28;20820;-59
2022/03/26 11:55:17;;;;;;;40.85;25.70;;;23.80;55.80;;;;;;5048367;28;20021;-59
2022/03/26 11:57:42;;;;;;;38.15;25.65;;;23.30;56.40;;;;;;5046130;28;20249;-60
2022/03/26 12:00:16;;;;;;;42.28;26.08;;;23.40;57.20;;;;;;5050587;28;20032;-60
2022/03/26 12:02:51;;;;;;;46.45;27.92;;;23.70;56.70;;;;;;5065336;28;20460;-60
2022/03/26 12:08:17;;;;;;;44.03;25.13;;;24.00;56.90;;;;;;5050834;28;20031;-61
2022/03/26 12:10:44;;;;;;;40.85;25.42;;;24.50;54.20;;;;;;5049989;28;20024;-61
2022/03/26 12:13:18;;;;;;;43.85;26.35;;;24.50;55.30;;;;;;5050169;28;20017;-61
2022/03/26 12:16:01;;;;;;;44.13;25.88;;;24.00;56.10;;;;;;5049922;28;20014;-59
2022/03/26 12:18:37;;;;;;;40.72;23.98;;;23.70;55.50;;;;;;5050042;28;20025;-60
2022/03/26 12:21:29;;;;;;;40.08;23.77;;;23.90;55.90;;;;;;5050851;28;20029;-60
2022/03/26 12:23:55;;;;;;;41.58;23.40;;;24.00;55.40;;;;;;5049534;28;20048;-60
2022/03/26 12:26:21;;;;;;;46.13;25.67;;;23.90;54.70;;;;;;5050580;28;20412;-60
2022/03/26 12:28:49;;;;;;;43.95;26.60;;;23.90;55.50;;;;;;5050751;28;20033;-61
2022/03/26 12:31:17;;;;;;;36.65;25.60;;;24.30;55.90;;;;;;5051144;28;20417;-60
2022/03/26 12:33:45;;;;;;;98.72;27.42;;;24.90;54.40;;;;;;5050726;28;20028;-60
2022/03/26 12:36:13;;;;;;;55.08;24.40;;;24.50;54.30;;;;;;5050357;28;20549;-60
2022/03/26 12:38:39;;;;;;;39.97;24.77;;;24.30;53.80;;;;;;5048770;28;20044;-60
2022/03/26 12:41:07;;;;;;;49.10;25.13;;;24.50;54.80;;;;;;5050312;28;20029;-60
2022/03/26 12:43:34;;;;;;;38.22;24.40;;;25.30;52.70;;;;;;5050563;28;20059;-60